sensor_id;sensor_type;location;lat;lon;timestamp;temperature;humidity
69054;DHT22;56125;52.242;4.756;2023-04-28T00:00:00;18.30;38.20
69054;DHT22;56125;52.242;4.756;2023-04-28T00:05:04;18.30;37.80
69054;DHT22;56125;52.242;4.756;2023-04-28T00:10:06;18.30;37.60
69054;DHT22;56125;52.242;4.756;2023-04-28T00:15:08;18.30;37.70
69054;DHT22;56125;52.242;4.756;2023-04-28T00:20:09;18.30;37.70
69054;DHT22;56125;52.242;4.756;2023-04-28T00:25:10;18.30;37.80
69054;DHT22;56125;52.242;4.756;2023-04-28T00:30:12;18.30;37.80
69054;DHT22;56125;52.242;4.756;2023-04-28T00:35:13;18.20;37.70
69054;DHT22;56125;52.242;4.756;2023-04-28T00:40:14;18.30;37.90
69054;DHT22;56125;52.242;4.756;2023-04-28T00:45:15;18.30;37.90
69054;DHT22;56125;52.242;4.756;2023-04-28T00:50:16;18.30;37.80
69054;DHT22;56125;52.242;4.756;2023-04-28T00:55:17;18.30;37.80
69054;DHT22;56125;52.242;4.756;2023-04-28T01:00:19;18.40;37.80
69054;DHT22;56125;52.242;4.756;2023-04-28T01:05:20;18.10;37.80
69054;DHT22;56125;52.242;4.756;2023-04-28T01:10:21;18.30;38.00
69054;DHT22;56125;52.242;4.756;2023-04-28T01:15:22;18.20;38.00
69054;DHT22;56125;52.242;4.756;2023-04-28T01:20:23;18.20;38.00
69054;DHT22;56125;52.242;4.756;2023-04-28T01:25:24;18.20;37.90
69054;DHT22;56125;52.242;4.756;2023-04-28T01:30:25;18.20;37.90
69054;DHT22;56125;52.242;4.756;2023-04-28T01:35:26;18.70;38.30
69054;DHT22;56125;52.242;4.756;2023-04-28T01:40:27;17.90;37.60
69054;DHT22;56125;52.242;4.756;2023-04-28T01:45:28;18.20;37.80
69054;DHT22;56125;52.242;4.756;2023-04-28T01:50:30;18.20;37.90
69054;DHT22;56125;52.242;4.756;2023-04-28T01:55:31;18.20;37.90
69054;DHT22;56125;52.242;4.756;2023-04-28T02:00:32;18.20;38.00
69054;DHT22;56125;52.242;4.756;2023-04-28T02:05:33;18.20;37.80
69054;DHT22;56125;52.242;4.756;2023-04-28T02:10:34;18.20;37.90
69054;DHT22;56125;52.242;4.756;2023-04-28T02:15:39;18.20;37.80
69054;DHT22;56125;52.242;4.756;2023-04-28T02:20:41;18.20;38.00
69054;DHT22;56125;52.242;4.756;2023-04-28T02:25:42;18.20;38.00
69054;DHT22;56125;52.242;4.756;2023-04-28T02:30:43;18.20;37.90
69054;DHT22;56125;52.242;4.756;2023-04-28T02:35:44;18.20;38.00
69054;DHT22;56125;52.242;4.756;2023-04-28T02:40:45;18.20;39.00
69054;DHT22;56125;52.242;4.756;2023-04-28T02:45:46;18.20;37.90
69054;DHT22;56125;52.242;4.756;2023-04-28T02:50:47;18.20;38.00
69054;DHT22;56125;52.242;4.756;2023-04-28T02:55:48;18.20;38.10
69054;DHT22;56125;52.242;4.756;2023-04-28T03:00:49;18.20;38.00
69054;DHT22;56125;52.242;4.756;2023-04-28T03:05:50;18.00;37.90
69054;DHT22;56125;52.242;4.756;2023-04-28T03:10:51;18.20;37.80
69054;DHT22;56125;52.242;4.756;2023-04-28T03:15:52;18.10;38.00
69054;DHT22;56125;52.242;4.756;2023-04-28T03:20:53;18.10;38.00
69054;DHT22;56125;52.242;4.756;2023-04-28T03:25:54;18.10;38.30
69054;DHT22;56125;52.242;4.756;2023-04-28T03:30:56;18.50;38.20
69054;DHT22;56125;52.242;4.756;2023-04-28T03:35:57;18.10;38.10
69054;DHT22;56125;52.242;4.756;2023-04-28T03:40:58;18.30;38.00
69054;DHT22;56125;52.242;4.756;2023-04-28T03:45:59;18.10;38.00
69054;DHT22;56125;52.242;4.756;2023-04-28T03:51:00;18.40;38.40
69054;DHT22;56125;52.242;4.756;2023-04-28T03:56:01;18.10;38.30
69054;DHT22;56125;52.242;4.756;2023-04-28T04:01:02;18.10;38.20
69054;DHT22;56125;52.242;4.756;2023-04-28T04:06:05;18.10;38.20
69054;DHT22;56125;52.242;4.756;2023-04-28T04:11:06;18.10;38.10
69054;DHT22;56125;52.242;4.756;2023-04-28T04:16:07;18.10;38.20
69054;DHT22;56125;52.242;4.756;2023-04-28T04:21:08;18.10;38.20
69054;DHT22;56125;52.242;4.756;2023-04-28T04:26:09;18.10;38.20
69054;DHT22;56125;52.242;4.756;2023-04-28T04:31:10;18.10;38.30
69054;DHT22;56125;52.242;4.756;2023-04-28T04:36:12;18.10;38.40
69054;DHT22;56125;52.242;4.756;2023-04-28T04:41:13;18.10;38.40
69054;DHT22;56125;52.242;4.756;2023-04-28T04:46:14;18.10;38.30
69054;DHT22;56125;52.242;4.756;2023-04-28T04:51:15;18.10;38.30
69054;DHT22;56125;52.242;4.756;2023-04-28T04:56:16;18.10;38.50
69054;DHT22;56125;52.242;4.756;2023-04-28T05:01:17;18.10;38.30
69054;DHT22;56125;52.242;4.756;2023-04-28T05:06:18;18.10;38.60
69054;DHT22;56125;52.242;4.756;2023-04-28T05:11:19;18.00;38.60
69054;DHT22;56125;52.242;4.756;2023-04-28T05:16:20;18.10;38.70
69054;DHT22;56125;52.242;4.756;2023-04-28T05:21:21;18.00;38.70
69054;DHT22;56125;52.242;4.756;2023-04-28T05:26:22;18.00;38.80
69054;DHT22;56125;52.242;4.756;2023-04-28T05:31:23;18.00;39.00
69054;DHT22;56125;52.242;4.756;2023-04-28T05:36:24;18.00;39.00
69054;DHT22;56125;52.242;4.756;2023-04-28T05:41:26;18.00;39.20
69054;DHT22;56125;52.242;4.756;2023-04-28T05:46:27;17.50;39.00
69054;DHT22;56125;52.242;4.756;2023-04-28T05:51:28;18.00;39.40
69054;DHT22;56125;52.242;4.756;2023-04-28T05:56:29;18.00;39.50
69054;DHT22;56125;52.242;4.756;2023-04-28T06:01:30;18.00;39.50
69054;DHT22;56125;52.242;4.756;2023-04-28T06:06:31;18.00;39.60
69054;DHT22;56125;52.242;4.756;2023-04-28T06:11:33;18.00;39.70
69054;DHT22;56125;52.242;4.756;2023-04-28T06:16:34;18.00;39.80
69054;DHT22;56125;52.242;4.756;2023-04-28T06:21:35;18.00;39.80
69054;DHT22;56125;52.242;4.756;2023-04-28T06:26:36;18.00;39.90
69054;DHT22;56125;52.242;4.756;2023-04-28T06:31:37;18.00;39.80
69054;DHT22;56125;52.242;4.756;2023-04-28T06:36:38;18.00;40.00
69054;DHT22;56125;52.242;4.756;2023-04-28T06:41:39;18.00;40.00
69054;DHT22;56125;52.242;4.756;2023-04-28T06:46:41;18.00;40.10
69054;DHT22;56125;52.242;4.756;2023-04-28T06:51:42;18.00;40.20
69054;DHT22;56125;52.242;4.756;2023-04-28T06:56:43;18.00;40.10
69054;DHT22;56125;52.242;4.756;2023-04-28T07:01:44;18.10;40.90
69054;DHT22;56125;52.242;4.756;2023-04-28T07:06:45;18.10;40.60
69054;DHT22;56125;52.242;4.756;2023-04-28T07:11:46;18.10;40.60
69054;DHT22;56125;52.242;4.756;2023-04-28T07:16:47;18.10;40.70
69054;DHT22;56125;52.242;4.756;2023-04-28T07:21:48;18.10;40.70
69054;DHT22;56125;52.242;4.756;2023-04-28T07:26:49;18.10;40.70
69054;DHT22;56125;52.242;4.756;2023-04-28T07:31:51;18.10;40.90
69054;DHT22;56125;52.242;4.756;2023-04-28T07:36:52;18.10;41.00
69054;DHT22;56125;52.242;4.756;2023-04-28T07:41:53;18.60;41.30
69054;DHT22;56125;52.242;4.756;2023-04-28T07:46:54;17.50;40.90
69054;DHT22;56125;52.242;4.756;2023-04-28T07:51:55;18.10;41.30
69054;DHT22;56125;52.242;4.756;2023-04-28T07:56:57;18.10;41.40
69054;DHT22;56125;52.242;4.756;2023-04-28T08:01:58;18.10;41.40
69054;DHT22;56125;52.242;4.756;2023-04-28T08:06:59;18.10;41.50
69054;DHT22;56125;52.242;4.756;2023-04-28T08:12:01;18.10;42.00
69054;DHT22;56125;52.242;4.756;2023-04-28T08:17:02;18.10;42.10
69054;DHT22;56125;52.242;4.756;2023-04-28T08:22:03;18.10;42.30
69054;DHT22;56125;52.242;4.756;2023-04-28T08:27:07;18.10;42.60
69054;DHT22;56125;52.242;4.756;2023-04-28T08:32:08;18.10;42.80
69054;DHT22;56125;52.242;4.756;2023-04-28T08:37:09;18.10;43.10
69054;DHT22;56125;52.242;4.756;2023-04-28T08:42:11;18.10;44.20
69054;DHT22;56125;52.242;4.756;2023-04-28T08:47:13;18.10;45.70
69054;DHT22;56125;52.242;4.756;2023-04-28T08:52:16;18.10;47.50
69054;DHT22;56125;52.242;4.756;2023-04-28T08:57:19;18.10;49.00
69054;DHT22;56125;52.242;4.756;2023-04-28T09:02:20;18.80;50.70
69054;DHT22;56125;52.242;4.756;2023-04-28T09:07:21;18.20;51.20
69054;DHT22;56125;52.242;4.756;2023-04-28T09:12:35;18.20;51.90
69054;DHT22;56125;52.242;4.756;2023-04-28T09:17:47;18.20;52.60
69054;DHT22;56125;52.242;4.756;2023-04-28T09:22:51;18.30;53.60
69054;DHT22;56125;52.242;4.756;2023-04-28T09:27:52;18.20;53.30
69054;DHT22;56125;52.242;4.756;2023-04-28T09:33:05;18.90;54.70
69054;DHT22;56125;52.242;4.756;2023-04-28T09:38:08;18.10;54.90
69054;DHT22;56125;52.242;4.756;2023-04-28T09:43:31;18.20;54.70
69054;DHT22;56125;52.242;4.756;2023-04-28T09:48:34;18.30;55.40
69054;DHT22;56125;52.242;4.756;2023-04-28T09:53:35;18.20;55.70
69054;DHT22;56125;52.242;4.756;2023-04-28T09:58:39;18.30;55.90
69054;DHT22;56125;52.242;4.756;2023-04-28T10:03:40;18.80;57.40
69054;DHT22;56125;52.242;4.756;2023-04-28T10:08:42;18.30;56.00
69054;DHT22;56125;52.242;4.756;2023-04-28T10:13:45;18.50;56.40
69054;DHT22;56125;52.242;4.756;2023-04-28T10:18:46;18.30;56.70
69054;DHT22;56125;52.242;4.756;2023-04-28T10:29:00;18.70;56.70
69054;DHT22;56125;52.242;4.756;2023-04-28T10:34:21;18.30;56.80
69054;DHT22;56125;52.242;4.756;2023-04-28T10:39:22;19.10;57.00
69054;DHT22;56125;52.242;4.756;2023-04-28T10:55:26;18.40;56.60
69054;DHT22;56125;52.242;4.756;2023-04-28T11:00:28;18.40;56.70
69054;DHT22;56125;52.242;4.756;2023-04-28T11:05:30;18.40;57.00
69054;DHT22;56125;52.242;4.756;2023-04-28T11:16:09;18.40;56.60
69054;DHT22;56125;52.242;4.756;2023-04-28T11:21:10;18.40;56.70
69054;DHT22;56125;52.242;4.756;2023-04-28T11:26:12;18.40;57.00
69054;DHT22;56125;52.242;4.756;2023-04-28T11:31:14;18.40;56.90
69054;DHT22;56125;52.242;4.756;2023-04-28T11:36:29;18.50;56.80
69054;DHT22;56125;52.242;4.756;2023-04-28T11:41:33;18.50;57.00
69054;DHT22;56125;52.242;4.756;2023-04-28T11:46:53;18.50;56.70
69054;DHT22;56125;52.242;4.756;2023-04-28T11:52:06;18.50;56.80
69054;DHT22;56125;52.242;4.756;2023-04-28T11:57:16;18.50;56.90
69054;DHT22;56125;52.242;4.756;2023-04-28T12:02:25;18.50;56.20
69054;DHT22;56125;52.242;4.756;2023-04-28T12:07:42;18.50;55.80
69054;DHT22;56125;52.242;4.756;2023-04-28T12:12:44;18.50;55.70
69054;DHT22;56125;52.242;4.756;2023-04-28T12:17:47;18.50;55.20
69054;DHT22;56125;52.242;4.756;2023-04-28T12:22:49;18.50;55.20
69054;DHT22;56125;52.242;4.756;2023-04-28T12:28:01;18.70;55.40
69054;DHT22;56125;52.242;4.756;2023-04-28T12:33:02;18.60;55.10
69054;DHT22;56125;52.242;4.756;2023-04-28T12:38:03;18.50;55.10
69054;DHT22;56125;52.242;4.756;2023-04-28T12:43:04;18.60;54.70
69054;DHT22;56125;52.242;4.756;2023-04-28T12:48:06;18.60;54.70
69054;DHT22;56125;52.242;4.756;2023-04-28T12:53:07;18.70;54.70
69054;DHT22;56125;52.242;4.756;2023-04-28T12:58:08;18.60;54.50
69054;DHT22;56125;52.242;4.756;2023-04-28T13:03:09;18.60;54.30
69054;DHT22;56125;52.242;4.756;2023-04-28T13:08:10;18.60;55.10
69054;DHT22;56125;52.242;4.756;2023-04-28T13:13:13;19.00;54.40
69054;DHT22;56125;52.242;4.756;2023-04-28T13:18:14;18.60;54.10
69054;DHT22;56125;52.242;4.756;2023-04-28T13:23:15;18.60;53.90
69054;DHT22;56125;52.242;4.756;2023-04-28T13:28:16;18.60;53.90
69054;DHT22;56125;52.242;4.756;2023-04-28T13:33:17;18.70;53.80
69054;DHT22;56125;52.242;4.756;2023-04-28T13:38:18;18.10;53.40
69054;DHT22;56125;52.242;4.756;2023-04-28T13:43:21;18.60;54.00
69054;DHT22;56125;52.242;4.756;2023-04-28T13:48:22;18.60;53.60
69054;DHT22;56125;52.242;4.756;2023-04-28T13:53:23;18.70;53.40
69054;DHT22;56125;52.242;4.756;2023-04-28T13:58:25;18.60;53.30
69054;DHT22;56125;52.242;4.756;2023-04-28T14:03:26;18.60;53.50
69054;DHT22;56125;52.242;4.756;2023-04-28T14:08:27;18.60;53.30
69054;DHT22;56125;52.242;4.756;2023-04-28T14:13:29;18.70;53.30
69054;DHT22;56125;52.242;4.756;2023-04-28T14:18:30;18.60;53.30
69054;DHT22;56125;52.242;4.756;2023-04-28T14:23:33;18.70;53.30
69054;DHT22;56125;52.242;4.756;2023-04-28T14:28:35;18.60;53.30
69054;DHT22;56125;52.242;4.756;2023-04-28T14:33:37;18.70;53.10
69054;DHT22;56125;52.242;4.756;2023-04-28T14:38:38;18.60;53.30
69054;DHT22;56125;52.242;4.756;2023-04-28T14:43:39;18.70;53.10
69054;DHT22;56125;52.242;4.756;2023-04-28T14:48:40;18.70;53.00
69054;DHT22;56125;52.242;4.756;2023-04-28T14:53:41;17.90;52.70
69054;DHT22;56125;52.242;4.756;2023-04-28T14:58:42;18.60;52.90
69054;DHT22;56125;52.242;4.756;2023-04-28T15:03:43;18.60;53.00
69054;DHT22;56125;52.242;4.756;2023-04-28T15:08:45;18.60;53.10
69054;DHT22;56125;52.242;4.756;2023-04-28T15:13:46;18.60;52.90
69054;DHT22;56125;52.242;4.756;2023-04-28T15:18:47;18.60;52.90
69054;DHT22;56125;52.242;4.756;2023-04-28T15:23:48;18.60;52.70
69054;DHT22;56125;52.242;4.756;2023-04-28T15:28:49;18.60;52.80
69054;DHT22;56125;52.242;4.756;2023-04-28T15:33:53;18.60;52.70
69054;DHT22;56125;52.242;4.756;2023-04-28T15:38:55;18.60;52.60
69054;DHT22;56125;52.242;4.756;2023-04-28T15:43:56;18.60;52.50
69054;DHT22;56125;52.242;4.756;2023-04-28T15:48:57;18.60;52.70
69054;DHT22;56125;52.242;4.756;2023-04-28T15:53:58;18.60;52.50
69054;DHT22;56125;52.242;4.756;2023-04-28T15:59:00;18.60;52.50
69054;DHT22;56125;52.242;4.756;2023-04-28T16:04:01;18.60;52.30
69054;DHT22;56125;52.242;4.756;2023-04-28T16:09:02;18.60;52.40
69054;DHT22;56125;52.242;4.756;2023-04-28T16:14:04;18.60;52.60
69054;DHT22;56125;52.242;4.756;2023-04-28T16:19:05;18.60;52.50
69054;DHT22;56125;52.242;4.756;2023-04-28T16:24:06;18.60;52.90
69054;DHT22;56125;52.242;4.756;2023-04-28T16:29:07;18.60;52.60
69054;DHT22;56125;52.242;4.756;2023-04-28T16:34:08;18.60;52.60
69054;DHT22;56125;52.242;4.756;2023-04-28T16:39:09;18.60;53.20
69054;DHT22;56125;52.242;4.756;2023-04-28T16:44:11;18.60;52.70
69054;DHT22;56125;52.242;4.756;2023-04-28T16:49:13;18.60;52.50
69054;DHT22;56125;52.242;4.756;2023-04-28T16:54:14;18.60;52.70
69054;DHT22;56125;52.242;4.756;2023-04-28T16:59:15;18.60;52.70
69054;DHT22;56125;52.242;4.756;2023-04-28T17:04:17;18.60;52.60
69054;DHT22;56125;52.242;4.756;2023-04-28T17:09:18;18.60;52.70
69054;DHT22;56125;52.242;4.756;2023-04-28T17:14:20;18.60;52.70
69054;DHT22;56125;52.242;4.756;2023-04-28T17:19:21;18.60;52.50
69054;DHT22;56125;52.242;4.756;2023-04-28T17:24:23;18.60;52.30
69054;DHT22;56125;52.242;4.756;2023-04-28T17:29:24;18.60;52.90
69054;DHT22;56125;52.242;4.756;2023-04-28T17:34:25;18.60;52.80
69054;DHT22;56125;52.242;4.756;2023-04-28T17:39:26;18.60;53.20
69054;DHT22;56125;52.242;4.756;2023-04-28T17:44:27;18.60;52.80
69054;DHT22;56125;52.242;4.756;2023-04-28T17:49:28;18.60;52.80
69054;DHT22;56125;52.242;4.756;2023-04-28T17:54:29;18.70;52.50
69054;DHT22;56125;52.242;4.756;2023-04-28T17:59:31;18.60;52.60
69054;DHT22;56125;52.242;4.756;2023-04-28T18:04:32;18.60;52.50
69054;DHT22;56125;52.242;4.756;2023-04-28T18:09:33;18.60;52.80
69054;DHT22;56125;52.242;4.756;2023-04-28T18:14:34;18.60;52.50
69054;DHT22;56125;52.242;4.756;2023-04-28T18:19:36;18.60;53.50
69054;DHT22;56125;52.242;4.756;2023-04-28T18:24:36;18.50;52.40
69054;DHT22;56125;52.242;4.756;2023-04-28T18:29:38;18.60;52.20
69054;DHT22;56125;52.242;4.756;2023-04-28T18:34:39;18.60;52.20
69054;DHT22;56125;52.242;4.756;2023-04-28T18:39:40;18.60;51.90
69054;DHT22;56125;52.242;4.756;2023-04-28T18:44:41;18.30;51.70
69054;DHT22;56125;52.242;4.756;2023-04-28T18:49:42;18.50;51.80
69054;DHT22;56125;52.242;4.756;2023-04-28T18:54:43;18.60;51.70
69054;DHT22;56125;52.242;4.756;2023-04-28T18:59:45;18.70;51.70
69054;DHT22;56125;52.242;4.756;2023-04-28T19:04:46;18.50;51.50
69054;DHT22;56125;52.242;4.756;2023-04-28T19:09:47;18.30;51.10
69054;DHT22;56125;52.242;4.756;2023-04-28T19:14:48;18.70;51.60
69054;DHT22;56125;52.242;4.756;2023-04-28T19:19:52;18.50;51.50
69054;DHT22;56125;52.242;4.756;2023-04-28T19:24:53;18.50;51.40
69054;DHT22;56125;52.242;4.756;2023-04-28T19:29:54;18.50;51.50
69054;DHT22;56125;52.242;4.756;2023-04-28T19:34:56;18.50;51.50
69054;DHT22;56125;52.242;4.756;2023-04-28T19:39:57;18.50;51.30
69054;DHT22;56125;52.242;4.756;2023-04-28T19:44:58;18.50;51.10
69054;DHT22;56125;52.242;4.756;2023-04-28T19:50:00;18.50;51.20
69054;DHT22;56125;52.242;4.756;2023-04-28T19:55:01;18.50;51.00
69054;DHT22;56125;52.242;4.756;2023-04-28T20:00:02;18.50;51.10
69054;DHT22;56125;52.242;4.756;2023-04-28T20:05:04;18.50;51.00
69054;DHT22;56125;52.242;4.756;2023-04-28T20:10:05;18.50;50.80
69054;DHT22;56125;52.242;4.756;2023-04-28T20:15:07;18.50;50.80
69054;DHT22;56125;52.242;4.756;2023-04-28T20:20:09;18.00;50.50
69054;DHT22;56125;52.242;4.756;2023-04-28T20:25:11;18.50;50.80
69054;DHT22;56125;52.242;4.756;2023-04-28T20:30:12;18.50;50.60
69054;DHT22;56125;52.242;4.756;2023-04-28T20:35:13;18.50;50.50
69054;DHT22;56125;52.242;4.756;2023-04-28T20:40:14;18.50;50.40
69054;DHT22;56125;52.242;4.756;2023-04-28T20:45:16;18.50;50.50
69054;DHT22;56125;52.242;4.756;2023-04-28T20:50:18;18.50;50.90
69054;DHT22;56125;52.242;4.756;2023-04-28T20:55:19;18.50;50.90
69054;DHT22;56125;52.242;4.756;2023-04-28T21:00:20;18.50;51.10
69054;DHT22;56125;52.242;4.756;2023-04-28T21:05:21;18.50;51.20
69054;DHT22;56125;52.242;4.756;2023-04-28T21:10:23;18.50;52.10
69054;DHT22;56125;52.242;4.756;2023-04-28T21:15:24;18.50;52.10
69054;DHT22;56125;52.242;4.756;2023-04-28T21:20:26;18.50;52.00
69054;DHT22;56125;52.242;4.756;2023-04-28T21:25:27;18.50;52.00
69054;DHT22;56125;52.242;4.756;2023-04-28T21:30:28;18.60;52.00
69054;DHT22;56125;52.242;4.756;2023-04-28T21:35:29;18.50;51.80
69054;DHT22;56125;52.242;4.756;2023-04-28T21:40:31;18.50;51.80
69054;DHT22;56125;52.242;4.756;2023-04-28T21:45:32;18.50;51.80
69054;DHT22;56125;52.242;4.756;2023-04-28T21:50:34;18.50;51.70
69054;DHT22;56125;52.242;4.756;2023-04-28T21:55:36;18.50;51.50
69054;DHT22;56125;52.242;4.756;2023-04-28T22:00:42;18.50;51.60
69054;DHT22;56125;52.242;4.756;2023-04-28T22:05:44;18.50;51.60
69054;DHT22;56125;52.242;4.756;2023-04-28T22:10:45;18.50;52.00
69054;DHT22;56125;52.242;4.756;2023-04-28T22:15:46;18.50;51.30
69054;DHT22;56125;52.242;4.756;2023-04-28T22:20:47;18.50;51.10
69054;DHT22;56125;52.242;4.756;2023-04-28T22:25:49;18.50;51.10
69054;DHT22;56125;52.242;4.756;2023-04-28T22:30:51;18.50;51.00
69054;DHT22;56125;52.242;4.756;2023-04-28T22:35:53;18.50;51.00
69054;DHT22;56125;52.242;4.756;2023-04-28T22:40:54;18.50;52.00
69054;DHT22;56125;52.242;4.756;2023-04-28T22:45:58;18.50;50.90
69054;DHT22;56125;52.242;4.756;2023-04-28T22:50:59;17.90;50.60
69054;DHT22;56125;52.242;4.756;2023-04-28T22:56:00;18.50;50.70
69054;DHT22;56125;52.242;4.756;2023-04-28T23:01:02;18.50;50.80
69054;DHT22;56125;52.242;4.756;2023-04-28T23:06:04;18.50;50.70
69054;DHT22;56125;52.242;4.756;2023-04-28T23:11:05;18.50;50.60
69054;DHT22;56125;52.242;4.756;2023-04-28T23:16:06;18.60;50.60
69054;DHT22;56125;52.242;4.756;2023-04-28T23:21:08;18.50;50.80
69054;DHT22;56125;52.242;4.756;2023-04-28T23:26:09;18.50;50.50
69054;DHT22;56125;52.242;4.756;2023-04-28T23:31:10;18.80;50.80
69054;DHT22;56125;52.242;4.756;2023-04-28T23:36:12;18.50;50.60
69054;DHT22;56125;52.242;4.756;2023-04-28T23:41:13;18.50;50.60
69054;DHT22;56125;52.242;4.756;2023-04-28T23:46:14;18.40;50.50
69054;DHT22;56125;52.242;4.756;2023-04-28T23:51:15;18.50;50.50
69054;DHT22;56125;52.242;4.756;2023-04-28T23:56:16;18.50;50.30
